sensor_id;sensor_type;location;lat;lon;timestamp;temperature;humidity
9125;DHT22;4597;48.730;9.114;2023-10-09T00:00:12;13.50;99.90
9125;DHT22;4597;48.730;9.114;2023-10-09T00:02:56;13.50;99.90
9125;DHT22;4597;48.730;9.114;2023-10-09T00:05:29;13.50;99.90
9125;DHT22;4597;48.730;9.114;2023-10-09T00:08:10;13.50;99.90
9125;DHT22;4597;48.730;9.114;2023-10-09T00:10:36;13.50;99.90
9125;DHT22;4597;48.730;9.114;2023-10-09T00:13:11;13.50;99.90
9125;DHT22;4597;48.730;9.114;2023-10-09T00:15:36;13.50;99.90
9125;DHT22;4597;48.730;9.114;2023-10-09T00:18:02;13.50;99.90
9125;DHT22;4597;48.730;9.114;2023-10-09T00:20:38;13.50;99.90
9125;DHT22;4597;48.730;9.114;2023-10-09T00:23:09;13.40;99.90
9125;DHT22;4597;48.730;9.114;2023-10-09T00:25:48;13.40;99.90
9125;DHT22;4597;48.730;9.114;2023-10-09T00:28:30;13.40;99.90
9125;DHT22;4597;48.730;9.114;2023-10-09T00:30:55;13.40;99.90
9125;DHT22;4597;48.730;9.114;2023-10-09T00:33:21;13.30;99.90
9125;DHT22;4597;48.730;9.114;2023-10-09T00:35:48;13.30;99.90
9125;DHT22;4597;48.730;9.114;2023-10-09T00:38:19;13.20;99.90
9125;DHT22;4597;48.730;9.114;2023-10-09T00:40:45;13.20;99.90
9125;DHT22;4597;48.730;9.114;2023-10-09T00:43:14;13.20;99.90
9125;DHT22;4597;48.730;9.114;2023-10-09T00:45:40;13.20;99.90
9125;DHT22;4597;48.730;9.114;2023-10-09T00:48:09;13.20;99.90
9125;DHT22;4597;48.730;9.114;2023-10-09T00:50:35;13.20;99.90
9125;DHT22;4597;48.730;9.114;2023-10-09T00:53:02;13.20;99.90
9125;DHT22;4597;48.730;9.114;2023-10-09T00:55:32;13.20;99.90
9125;DHT22;4597;48.730;9.114;2023-10-09T00:58:11;13.20;99.90
9125;DHT22;4597;48.730;9.114;2023-10-09T01:00:39;13.20;99.90
9125;DHT22;4597;48.730;9.114;2023-10-09T01:03:13;13.30;99.90
9125;DHT22;4597;48.730;9.114;2023-10-09T01:05:48;13.30;99.90
9125;DHT22;4597;48.730;9.114;2023-10-09T01:08:39;13.30;99.90
9125;DHT22;4597;48.730;9.114;2023-10-09T01:11:05;13.20;99.90
9125;DHT22;4597;48.730;9.114;2023-10-09T01:13:45;13.20;99.90
9125;DHT22;4597;48.730;9.114;2023-10-09T01:16:14;13.20;99.90
9125;DHT22;4597;48.730;9.114;2023-10-09T01:21:12;13.20;99.90
9125;DHT22;4597;48.730;9.114;2023-10-09T01:23:42;13.20;99.90
9125;DHT22;4597;48.730;9.114;2023-10-09T01:26:32;13.20;99.90
9125;DHT22;4597;48.730;9.114;2023-10-09T01:29:18;13.20;99.90
9125;DHT22;4597;48.730;9.114;2023-10-09T01:31:52;13.20;99.90
9125;DHT22;4597;48.730;9.114;2023-10-09T01:34:27;13.10;99.90
9125;DHT22;4597;48.730;9.114;2023-10-09T01:37:13;13.10;99.90
9125;DHT22;4597;48.730;9.114;2023-10-09T01:39:48;13.00;99.90
9125;DHT22;4597;48.730;9.114;2023-10-09T01:42:18;12.90;99.90
9125;DHT22;4597;48.730;9.114;2023-10-09T01:44:59;12.90;99.90
9125;DHT22;4597;48.730;9.114;2023-10-09T01:47:35;12.90;99.90
9125;DHT22;4597;48.730;9.114;2023-10-09T01:50:06;12.90;99.90
9125;DHT22;4597;48.730;9.114;2023-10-09T01:52:38;12.90;99.90
9125;DHT22;4597;48.730;9.114;2023-10-09T01:55:04;12.80;99.90
9125;DHT22;4597;48.730;9.114;2023-10-09T01:57:39;12.90;99.90
9125;DHT22;4597;48.730;9.114;2023-10-09T02:00:05;12.90;99.90
9125;DHT22;4597;48.730;9.114;2023-10-09T02:02:32;12.90;99.90
9125;DHT22;4597;48.730;9.114;2023-10-09T02:05:05;12.90;99.90
9125;DHT22;4597;48.730;9.114;2023-10-09T02:07:40;12.90;99.90
9125;DHT22;4597;48.730;9.114;2023-10-09T02:10:12;12.90;99.90
9125;DHT22;4597;48.730;9.114;2023-10-09T02:12:51;13.00;99.90
9125;DHT22;4597;48.730;9.114;2023-10-09T02:15:27;13.00;99.90
9125;DHT22;4597;48.730;9.114;2023-10-09T02:18:08;13.00;99.90
9125;DHT22;4597;48.730;9.114;2023-10-09T02:20:52;12.90;99.90
9125;DHT22;4597;48.730;9.114;2023-10-09T02:23:38;13.00;99.90
9125;DHT22;4597;48.730;9.114;2023-10-09T02:26:10;13.00;99.90
9125;DHT22;4597;48.730;9.114;2023-10-09T02:28:43;13.00;99.90
9125;DHT22;4597;48.730;9.114;2023-10-09T02:31:12;13.00;99.90
9125;DHT22;4597;48.730;9.114;2023-10-09T02:33:38;13.10;99.90
9125;DHT22;4597;48.730;9.114;2023-10-09T02:36:07;13.10;99.90
9125;DHT22;4597;48.730;9.114;2023-10-09T02:38:33;13.10;99.90
9125;DHT22;4597;48.730;9.114;2023-10-09T02:41:03;13.10;99.90
9125;DHT22;4597;48.730;9.114;2023-10-09T02:43:30;13.10;99.90
9125;DHT22;4597;48.730;9.114;2023-10-09T02:46:07;13.10;99.90
9125;DHT22;4597;48.730;9.114;2023-10-09T02:48:51;13.10;99.90
9125;DHT22;4597;48.730;9.114;2023-10-09T02:51:18;13.10;99.90
9125;DHT22;4597;48.730;9.114;2023-10-09T02:54:03;13.10;99.90
9125;DHT22;4597;48.730;9.114;2023-10-09T02:56:52;13.00;99.90
9125;DHT22;4597;48.730;9.114;2023-10-09T02:59:23;13.00;99.90
9125;DHT22;4597;48.730;9.114;2023-10-09T03:01:49;13.00;99.90
9125;DHT22;4597;48.730;9.114;2023-10-09T03:04:15;12.90;99.90
9125;DHT22;4597;48.730;9.114;2023-10-09T03:06:41;12.90;99.90
9125;DHT22;4597;48.730;9.114;2023-10-09T03:09:18;12.90;99.90
9125;DHT22;4597;48.730;9.114;2023-10-09T03:11:52;12.90;99.90
9125;DHT22;4597;48.730;9.114;2023-10-09T03:14:21;12.90;99.90
9125;DHT22;4597;48.730;9.114;2023-10-09T03:16:50;12.90;99.90
9125;DHT22;4597;48.730;9.114;2023-10-09T03:19:16;12.80;99.90
9125;DHT22;4597;48.730;9.114;2023-10-09T03:21:42;12.80;99.90
9125;DHT22;4597;48.730;9.114;2023-10-09T03:24:07;12.80;99.90
9125;DHT22;4597;48.730;9.114;2023-10-09T03:26:33;12.80;99.90
9125;DHT22;4597;48.730;9.114;2023-10-09T03:28:59;12.80;99.90
9125;DHT22;4597;48.730;9.114;2023-10-09T03:31:32;12.80;99.90
9125;DHT22;4597;48.730;9.114;2023-10-09T03:33:59;12.80;99.90
9125;DHT22;4597;48.730;9.114;2023-10-09T03:36:24;12.80;99.90
9125;DHT22;4597;48.730;9.114;2023-10-09T03:38:54;12.80;99.90
9125;DHT22;4597;48.730;9.114;2023-10-09T03:41:21;12.80;99.90
9125;DHT22;4597;48.730;9.114;2023-10-09T03:43:46;12.90;99.90
9125;DHT22;4597;48.730;9.114;2023-10-09T03:46:12;12.80;99.90
9125;DHT22;4597;48.730;9.114;2023-10-09T03:48:51;12.80;99.90
9125;DHT22;4597;48.730;9.114;2023-10-09T03:51:18;12.80;99.90
9125;DHT22;4597;48.730;9.114;2023-10-09T03:53:50;12.80;99.90
9125;DHT22;4597;48.730;9.114;2023-10-09T03:56:18;12.70;99.90
9125;DHT22;4597;48.730;9.114;2023-10-09T03:58:46;12.70;99.90
9125;DHT22;4597;48.730;9.114;2023-10-09T04:01:17;12.70;99.90
9125;DHT22;4597;48.730;9.114;2023-10-09T04:03:53;12.60;99.90
9125;DHT22;4597;48.730;9.114;2023-10-09T04:06:25;12.60;99.90
9125;DHT22;4597;48.730;9.114;2023-10-09T04:08:58;12.60;99.90
9125;DHT22;4597;48.730;9.114;2023-10-09T04:11:27;12.60;99.90
9125;DHT22;4597;48.730;9.114;2023-10-09T04:13:52;12.60;99.90
9125;DHT22;4597;48.730;9.114;2023-10-09T04:16:22;12.60;99.90
9125;DHT22;4597;48.730;9.114;2023-10-09T04:18:59;12.60;99.90
9125;DHT22;4597;48.730;9.114;2023-10-09T04:21:26;12.60;99.90
9125;DHT22;4597;48.730;9.114;2023-10-09T04:26:41;12.60;99.90
9125;DHT22;4597;48.730;9.114;2023-10-09T04:29:16;12.60;99.90
9125;DHT22;4597;48.730;9.114;2023-10-09T04:31:55;12.60;99.90
9125;DHT22;4597;48.730;9.114;2023-10-09T04:34:25;12.60;99.90
9125;DHT22;4597;48.730;9.114;2023-10-09T04:37:00;12.50;99.90
9125;DHT22;4597;48.730;9.114;2023-10-09T04:39:28;12.50;99.90
9125;DHT22;4597;48.730;9.114;2023-10-09T04:41:54;12.50;99.90
9125;DHT22;4597;48.730;9.114;2023-10-09T04:44:43;12.50;99.90
9125;DHT22;4597;48.730;9.114;2023-10-09T04:47:35;12.50;99.90
9125;DHT22;4597;48.730;9.114;2023-10-09T04:50:26;12.50;99.90
9125;DHT22;4597;48.730;9.114;2023-10-09T04:52:54;12.50;99.90
9125;DHT22;4597;48.730;9.114;2023-10-09T04:55:20;12.50;99.90
9125;DHT22;4597;48.730;9.114;2023-10-09T04:57:50;12.50;99.90
9125;DHT22;4597;48.730;9.114;2023-10-09T05:00:34;12.50;99.90
9125;DHT22;4597;48.730;9.114;2023-10-09T05:03:01;12.50;99.90
9125;DHT22;4597;48.730;9.114;2023-10-09T05:05:33;12.50;99.90
9125;DHT22;4597;48.730;9.114;2023-10-09T05:08:12;12.40;99.90
9125;DHT22;4597;48.730;9.114;2023-10-09T05:10:50;12.50;99.90
9125;DHT22;4597;48.730;9.114;2023-10-09T05:16:08;12.50;99.90
9125;DHT22;4597;48.730;9.114;2023-10-09T05:18:41;12.50;99.90
9125;DHT22;4597;48.730;9.114;2023-10-09T05:21:07;12.50;99.90
9125;DHT22;4597;48.730;9.114;2023-10-09T05:23:39;12.50;99.90
9125;DHT22;4597;48.730;9.114;2023-10-09T05:26:17;12.50;99.90
9125;DHT22;4597;48.730;9.114;2023-10-09T05:29:06;12.50;99.90
9125;DHT22;4597;48.730;9.114;2023-10-09T05:31:48;12.50;99.90
9125;DHT22;4597;48.730;9.114;2023-10-09T05:34:42;12.50;99.90
9125;DHT22;4597;48.730;9.114;2023-10-09T05:37:30;12.50;99.90
9125;DHT22;4597;48.730;9.114;2023-10-09T05:40:00;12.50;99.90
9125;DHT22;4597;48.730;9.114;2023-10-09T05:42:31;12.50;99.90
9125;DHT22;4597;48.730;9.114;2023-10-09T05:45:05;12.50;99.90
9125;DHT22;4597;48.730;9.114;2023-10-09T05:47:50;12.50;99.90
9125;DHT22;4597;48.730;9.114;2023-10-09T05:50:29;12.50;99.90
9125;DHT22;4597;48.730;9.114;2023-10-09T05:52:57;12.50;99.90
9125;DHT22;4597;48.730;9.114;2023-10-09T05:55:32;12.50;99.90
9125;DHT22;4597;48.730;9.114;2023-10-09T05:58:16;12.50;99.90
9125;DHT22;4597;48.730;9.114;2023-10-09T06:01:00;12.50;99.90
9125;DHT22;4597;48.730;9.114;2023-10-09T06:03:44;12.50;99.90
9125;DHT22;4597;48.730;9.114;2023-10-09T06:06:29;12.50;99.90
9125;DHT22;4597;48.730;9.114;2023-10-09T06:09:08;12.60;99.90
9125;DHT22;4597;48.730;9.114;2023-10-09T06:14:07;12.60;99.90
9125;DHT22;4597;48.730;9.114;2023-10-09T06:16:40;12.60;99.90
9125;DHT22;4597;48.730;9.114;2023-10-09T06:19:13;12.60;99.90
9125;DHT22;4597;48.730;9.114;2023-10-09T06:21:45;12.70;99.90
9125;DHT22;4597;48.730;9.114;2023-10-09T06:24:21;12.70;99.90
9125;DHT22;4597;48.730;9.114;2023-10-09T06:26:54;12.70;99.90
9125;DHT22;4597;48.730;9.114;2023-10-09T06:29:26;12.80;99.90
9125;DHT22;4597;48.730;9.114;2023-10-09T06:32:17;12.80;99.90
9125;DHT22;4597;48.730;9.114;2023-10-09T06:34:48;12.80;99.90
9125;DHT22;4597;48.730;9.114;2023-10-09T06:37:21;12.80;99.90
9125;DHT22;4597;48.730;9.114;2023-10-09T06:39:56;12.90;99.90
9125;DHT22;4597;48.730;9.114;2023-10-09T06:42:28;12.90;99.90
9125;DHT22;4597;48.730;9.114;2023-10-09T06:45:10;12.90;99.90
9125;DHT22;4597;48.730;9.114;2023-10-09T06:47:39;12.90;99.90
9125;DHT22;4597;48.730;9.114;2023-10-09T06:50:19;13.00;99.90
9125;DHT22;4597;48.730;9.114;2023-10-09T06:52:47;13.00;99.90
9125;DHT22;4597;48.730;9.114;2023-10-09T06:55:26;13.00;99.90
9125;DHT22;4597;48.730;9.114;2023-10-09T06:58:00;13.10;99.90
9125;DHT22;4597;48.730;9.114;2023-10-09T07:00:42;13.10;99.90
9125;DHT22;4597;48.730;9.114;2023-10-09T07:03:40;13.20;99.90
9125;DHT22;4597;48.730;9.114;2023-10-09T07:06:18;13.20;99.90
9125;DHT22;4597;48.730;9.114;2023-10-09T07:09:11;13.20;99.90
9125;DHT22;4597;48.730;9.114;2023-10-09T07:11:39;13.20;99.90
9125;DHT22;4597;48.730;9.114;2023-10-09T07:14:13;13.20;99.90
9125;DHT22;4597;48.730;9.114;2023-10-09T07:17:06;13.20;99.90
9125;DHT22;4597;48.730;9.114;2023-10-09T07:19:42;13.30;99.90
9125;DHT22;4597;48.730;9.114;2023-10-09T07:22:09;13.30;99.90
9125;DHT22;4597;48.730;9.114;2023-10-09T07:24:56;13.30;99.90
9125;DHT22;4597;48.730;9.114;2023-10-09T07:27:22;13.30;99.90
9125;DHT22;4597;48.730;9.114;2023-10-09T07:30:08;13.40;99.90
9125;DHT22;4597;48.730;9.114;2023-10-09T07:35:34;13.50;99.90
9125;DHT22;4597;48.730;9.114;2023-10-09T07:38:42;13.50;99.90
9125;DHT22;4597;48.730;9.114;2023-10-09T07:41:01;13.60;99.90
9125;DHT22;4597;48.730;9.114;2023-10-09T07:43:29;13.70;99.90
9125;DHT22;4597;48.730;9.114;2023-10-09T07:46:04;13.70;99.90
9125;DHT22;4597;48.730;9.114;2023-10-09T07:48:29;13.80;99.90
9125;DHT22;4597;48.730;9.114;2023-10-09T07:51:12;13.90;99.90
9125;DHT22;4597;48.730;9.114;2023-10-09T07:53:38;13.90;99.90
9125;DHT22;4597;48.730;9.114;2023-10-09T07:56:13;14.00;99.90
9125;DHT22;4597;48.730;9.114;2023-10-09T07:58:49;14.00;99.90
9125;DHT22;4597;48.730;9.114;2023-10-09T08:01:15;14.10;99.90
9125;DHT22;4597;48.730;9.114;2023-10-09T08:03:51;14.20;99.90
9125;DHT22;4597;48.730;9.114;2023-10-09T08:06:24;14.30;99.90
9125;DHT22;4597;48.730;9.114;2023-10-09T08:09:06;14.40;99.90
9125;DHT22;4597;48.730;9.114;2023-10-09T08:11:48;14.40;99.90
9125;DHT22;4597;48.730;9.114;2023-10-09T08:14:42;14.50;99.90
9125;DHT22;4597;48.730;9.114;2023-10-09T08:17:14;14.50;99.90
9125;DHT22;4597;48.730;9.114;2023-10-09T08:19:52;14.60;99.90
9125;DHT22;4597;48.730;9.114;2023-10-09T08:22:36;14.70;99.90
9125;DHT22;4597;48.730;9.114;2023-10-09T08:25:12;14.70;99.90
9125;DHT22;4597;48.730;9.114;2023-10-09T08:27:55;14.80;99.90
9125;DHT22;4597;48.730;9.114;2023-10-09T08:30:23;14.80;99.90
9125;DHT22;4597;48.730;9.114;2023-10-09T08:32:50;14.90;99.90
9125;DHT22;4597;48.730;9.114;2023-10-09T08:35:52;14.90;99.90
9125;DHT22;4597;48.730;9.114;2023-10-09T08:38:20;14.90;99.90
9125;DHT22;4597;48.730;9.114;2023-10-09T08:40:52;15.00;99.90
9125;DHT22;4597;48.730;9.114;2023-10-09T08:43:23;15.00;99.90
9125;DHT22;4597;48.730;9.114;2023-10-09T08:45:52;15.10;99.90
9125;DHT22;4597;48.730;9.114;2023-10-09T08:48:22;15.10;99.90
9125;DHT22;4597;48.730;9.114;2023-10-09T08:50:48;15.20;99.90
9125;DHT22;4597;48.730;9.114;2023-10-09T08:53:15;15.20;99.90
9125;DHT22;4597;48.730;9.114;2023-10-09T08:55:42;15.30;99.90
9125;DHT22;4597;48.730;9.114;2023-10-09T08:58:08;15.40;99.90
9125;DHT22;4597;48.730;9.114;2023-10-09T09:00:46;15.40;99.90
9125;DHT22;4597;48.730;9.114;2023-10-09T09:03:16;15.50;99.90
9125;DHT22;4597;48.730;9.114;2023-10-09T09:05:58;15.60;99.90
9125;DHT22;4597;48.730;9.114;2023-10-09T09:08:27;15.70;99.90
9125;DHT22;4597;48.730;9.114;2023-10-09T09:11:08;15.70;99.90
9125;DHT22;4597;48.730;9.114;2023-10-09T09:14:01;15.80;99.90
9125;DHT22;4597;48.730;9.114;2023-10-09T09:16:31;15.80;99.90
9125;DHT22;4597;48.730;9.114;2023-10-09T09:18:58;15.90;99.90
9125;DHT22;4597;48.730;9.114;2023-10-09T09:21:38;16.00;99.90
9125;DHT22;4597;48.730;9.114;2023-10-09T09:24:06;16.00;99.90
9125;DHT22;4597;48.730;9.114;2023-10-09T09:26:42;16.10;99.90
9125;DHT22;4597;48.730;9.114;2023-10-09T09:29:14;16.20;99.90
9125;DHT22;4597;48.730;9.114;2023-10-09T09:31:53;16.30;99.90
9125;DHT22;4597;48.730;9.114;2023-10-09T09:34:19;16.40;99.90
9125;DHT22;4597;48.730;9.114;2023-10-09T09:36:53;16.40;99.90
9125;DHT22;4597;48.730;9.114;2023-10-09T09:39:21;16.50;99.90
9125;DHT22;4597;48.730;9.114;2023-10-09T09:41:54;16.60;99.90
9125;DHT22;4597;48.730;9.114;2023-10-09T09:44:20;16.70;99.90
9125;DHT22;4597;48.730;9.114;2023-10-09T09:46:48;16.70;99.90
9125;DHT22;4597;48.730;9.114;2023-10-09T09:49:15;16.80;99.90
9125;DHT22;4597;48.730;9.114;2023-10-09T09:51:47;16.90;99.90
9125;DHT22;4597;48.730;9.114;2023-10-09T09:54:13;17.00;99.90
9125;DHT22;4597;48.730;9.114;2023-10-09T09:56:44;17.10;99.90
9125;DHT22;4597;48.730;9.114;2023-10-09T09:59:17;17.20;99.90
9125;DHT22;4597;48.730;9.114;2023-10-09T10:01:49;17.30;99.90
9125;DHT22;4597;48.730;9.114;2023-10-09T10:04:25;17.30;99.90
9125;DHT22;4597;48.730;9.114;2023-10-09T10:06:52;17.40;99.90
9125;DHT22;4597;48.730;9.114;2023-10-09T10:09:40;17.50;99.90
9125;DHT22;4597;48.730;9.114;2023-10-09T10:12:10;17.70;99.90
9125;DHT22;4597;48.730;9.114;2023-10-09T10:14:58;17.80;99.90
9125;DHT22;4597;48.730;9.114;2023-10-09T10:20:25;18.00;99.90
9125;DHT22;4597;48.730;9.114;2023-10-09T10:22:51;18.00;99.90
9125;DHT22;4597;48.730;9.114;2023-10-09T10:25:37;18.10;99.90
9125;DHT22;4597;48.730;9.114;2023-10-09T10:28:25;18.10;99.90
9125;DHT22;4597;48.730;9.114;2023-10-09T10:31:01;18.20;99.90
9125;DHT22;4597;48.730;9.114;2023-10-09T10:36:23;18.30;99.90
9125;DHT22;4597;48.730;9.114;2023-10-09T10:39:05;18.30;99.90
9125;DHT22;4597;48.730;9.114;2023-10-09T10:41:56;18.30;99.90
9125;DHT22;4597;48.730;9.114;2023-10-09T10:44:33;18.40;99.90
9125;DHT22;4597;48.730;9.114;2023-10-09T10:47:10;18.50;99.90
9125;DHT22;4597;48.730;9.114;2023-10-09T10:49:51;18.60;99.90
9125;DHT22;4597;48.730;9.114;2023-10-09T10:52:21;18.80;99.90
9125;DHT22;4597;48.730;9.114;2023-10-09T10:54:48;19.00;99.90
9125;DHT22;4597;48.730;9.114;2023-10-09T10:57:42;19.20;99.90
9125;DHT22;4597;48.730;9.114;2023-10-09T11:00:28;19.40;99.90
9125;DHT22;4597;48.730;9.114;2023-10-09T11:03:32;19.50;99.90
9125;DHT22;4597;48.730;9.114;2023-10-09T11:06:27;19.60;99.90
9125;DHT22;4597;48.730;9.114;2023-10-09T11:09:07;19.90;99.90
9125;DHT22;4597;48.730;9.114;2023-10-09T11:11:48;20.10;99.90
9125;DHT22;4597;48.730;9.114;2023-10-09T11:14:14;20.30;99.90
9125;DHT22;4597;48.730;9.114;2023-10-09T11:16:40;20.30;98.50
9125;DHT22;4597;48.730;9.114;2023-10-09T11:19:25;20.30;98.20
9125;DHT22;4597;48.730;9.114;2023-10-09T11:21:54;20.40;96.60
9125;DHT22;4597;48.730;9.114;2023-10-09T11:24:32;20.50;94.70
9125;DHT22;4597;48.730;9.114;2023-10-09T11:27:05;20.60;93.60
9125;DHT22;4597;48.730;9.114;2023-10-09T11:29:35;20.50;94.60
9125;DHT22;4597;48.730;9.114;2023-10-09T11:34:46;20.50;92.40
9125;DHT22;4597;48.730;9.114;2023-10-09T11:37:22;20.40;93.10
9125;DHT22;4597;48.730;9.114;2023-10-09T11:39:53;20.40;91.70
9125;DHT22;4597;48.730;9.114;2023-10-09T11:42:20;20.40;92.60
9125;DHT22;4597;48.730;9.114;2023-10-09T11:45:24;20.40;94.20
9125;DHT22;4597;48.730;9.114;2023-10-09T11:47:53;20.40;92.50
9125;DHT22;4597;48.730;9.114;2023-10-09T11:50:41;20.50;90.70
9125;DHT22;4597;48.730;9.114;2023-10-09T11:53:17;20.80;84.50
9125;DHT22;4597;48.730;9.114;2023-10-09T11:55:46;20.90;79.70
9125;DHT22;4597;48.730;9.114;2023-10-09T11:58:18;20.90;78.90
9125;DHT22;4597;48.730;9.114;2023-10-09T12:00:54;20.90;78.90
9125;DHT22;4597;48.730;9.114;2023-10-09T12:03:29;20.90;80.80
9125;DHT22;4597;48.730;9.114;2023-10-09T12:06:00;20.90;84.00
9125;DHT22;4597;48.730;9.114;2023-10-09T12:08:31;20.90;79.90
9125;DHT22;4597;48.730;9.114;2023-10-09T12:10:57;21.00;82.40
9125;DHT22;4597;48.730;9.114;2023-10-09T12:13:23;21.00;81.60
9125;DHT22;4597;48.730;9.114;2023-10-09T12:15:50;21.10;84.40
9125;DHT22;4597;48.730;9.114;2023-10-09T12:18:17;21.10;83.50
9125;DHT22;4597;48.730;9.114;2023-10-09T12:20:44;21.20;79.70
9125;DHT22;4597;48.730;9.114;2023-10-09T12:23:20;21.20;82.50
9125;DHT22;4597;48.730;9.114;2023-10-09T12:25:48;21.30;83.50
9125;DHT22;4597;48.730;9.114;2023-10-09T12:28:14;21.30;83.90
9125;DHT22;4597;48.730;9.114;2023-10-09T12:30:41;21.40;86.90
9125;DHT22;4597;48.730;9.114;2023-10-09T12:33:08;21.40;81.80
9125;DHT22;4597;48.730;9.114;2023-10-09T12:35:38;21.40;81.00
9125;DHT22;4597;48.730;9.114;2023-10-09T12:38:05;21.50;81.30
9125;DHT22;4597;48.730;9.114;2023-10-09T12:40:36;21.50;80.30
9125;DHT22;4597;48.730;9.114;2023-10-09T12:43:01;21.60;79.90
9125;DHT22;4597;48.730;9.114;2023-10-09T12:45:27;21.50;77.40
9125;DHT22;4597;48.730;9.114;2023-10-09T12:47:56;21.60;76.90
9125;DHT22;4597;48.730;9.114;2023-10-09T12:50:30;21.70;77.40
9125;DHT22;4597;48.730;9.114;2023-10-09T12:52:59;21.70;78.20
9125;DHT22;4597;48.730;9.114;2023-10-09T12:55:28;21.80;78.20
9125;DHT22;4597;48.730;9.114;2023-10-09T12:58:00;22.00;74.60
9125;DHT22;4597;48.730;9.114;2023-10-09T13:00:29;22.20;69.70
9125;DHT22;4597;48.730;9.114;2023-10-09T13:02:58;22.30;71.20
9125;DHT22;4597;48.730;9.114;2023-10-09T13:05:26;22.50;72.50
9125;DHT22;4597;48.730;9.114;2023-10-09T13:07:52;22.60;73.60
9125;DHT22;4597;48.730;9.114;2023-10-09T13:10:19;22.80;73.40
9125;DHT22;4597;48.730;9.114;2023-10-09T13:12:45;23.10;68.40
9125;DHT22;4597;48.730;9.114;2023-10-09T13:15:11;23.30;59.60
9125;DHT22;4597;48.730;9.114;2023-10-09T13:17:37;23.50;59.80
9125;DHT22;4597;48.730;9.114;2023-10-09T13:20:04;23.70;57.30
9125;DHT22;4597;48.730;9.114;2023-10-09T13:22:38;23.80;55.90
9125;DHT22;4597;48.730;9.114;2023-10-09T13:25:05;24.10;50.90
9125;DHT22;4597;48.730;9.114;2023-10-09T13:27:31;24.40;51.80
9125;DHT22;4597;48.730;9.114;2023-10-09T13:30:00;24.80;45.40
9125;DHT22;4597;48.730;9.114;2023-10-09T13:32:33;25.00;45.00
9125;DHT22;4597;48.730;9.114;2023-10-09T13:35:04;25.40;40.00
9125;DHT22;4597;48.730;9.114;2023-10-09T13:37:31;25.70;40.00
9125;DHT22;4597;48.730;9.114;2023-10-09T13:40:04;25.90;34.80
9125;DHT22;4597;48.730;9.114;2023-10-09T13:42:35;26.20;34.40
9125;DHT22;4597;48.730;9.114;2023-10-09T13:45:02;26.50;31.30
9125;DHT22;4597;48.730;9.114;2023-10-09T13:47:32;26.60;28.90
9125;DHT22;4597;48.730;9.114;2023-10-09T13:49:58;26.50;28.00
9125;DHT22;4597;48.730;9.114;2023-10-09T13:52:25;26.50;27.40
9125;DHT22;4597;48.730;9.114;2023-10-09T13:54:52;26.60;27.90
9125;DHT22;4597;48.730;9.114;2023-10-09T13:57:18;26.80;28.10
9125;DHT22;4597;48.730;9.114;2023-10-09T13:59:47;27.10;26.10
9125;DHT22;4597;48.730;9.114;2023-10-09T14:02:17;26.90;24.50
9125;DHT22;4597;48.730;9.114;2023-10-09T14:04:43;26.60;25.60
9125;DHT22;4597;48.730;9.114;2023-10-09T14:07:09;26.30;25.60
9125;DHT22;4597;48.730;9.114;2023-10-09T14:09:34;26.10;26.90
9125;DHT22;4597;48.730;9.114;2023-10-09T14:12:04;25.70;26.80
9125;DHT22;4597;48.730;9.114;2023-10-09T14:14:41;25.50;27.40
9125;DHT22;4597;48.730;9.114;2023-10-09T14:17:14;25.30;28.30
9125;DHT22;4597;48.730;9.114;2023-10-09T14:19:40;25.20;28.00
9125;DHT22;4597;48.730;9.114;2023-10-09T14:22:16;25.20;28.70
9125;DHT22;4597;48.730;9.114;2023-10-09T14:24:47;25.10;28.80
9125;DHT22;4597;48.730;9.114;2023-10-09T14:27:16;25.00;29.20
9125;DHT22;4597;48.730;9.114;2023-10-09T14:29:48;25.00;29.80
9125;DHT22;4597;48.730;9.114;2023-10-09T14:32:14;24.90;30.00
9125;DHT22;4597;48.730;9.114;2023-10-09T14:34:40;24.80;30.30
9125;DHT22;4597;48.730;9.114;2023-10-09T14:37:12;24.70;29.00
9125;DHT22;4597;48.730;9.114;2023-10-09T14:39:40;24.50;28.60
9125;DHT22;4597;48.730;9.114;2023-10-09T14:42:07;24.50;28.90
9125;DHT22;4597;48.730;9.114;2023-10-09T14:44:36;24.40;29.30
9125;DHT22;4597;48.730;9.114;2023-10-09T14:47:05;24.40;29.30
9125;DHT22;4597;48.730;9.114;2023-10-09T14:49:32;24.40;29.80
9125;DHT22;4597;48.730;9.114;2023-10-09T14:52:03;24.50;30.20
9125;DHT22;4597;48.730;9.114;2023-10-09T14:54:29;24.60;31.70
9125;DHT22;4597;48.730;9.114;2023-10-09T14:56:55;24.70;31.70
9125;DHT22;4597;48.730;9.114;2023-10-09T14:59:22;24.70;31.80
9125;DHT22;4597;48.730;9.114;2023-10-09T15:01:48;24.60;31.40
9125;DHT22;4597;48.730;9.114;2023-10-09T15:04:15;24.60;31.30
9125;DHT22;4597;48.730;9.114;2023-10-09T15:06:41;24.50;32.60
9125;DHT22;4597;48.730;9.114;2023-10-09T15:09:06;24.40;33.50
9125;DHT22;4597;48.730;9.114;2023-10-09T15:11:42;24.40;33.40
9125;DHT22;4597;48.730;9.114;2023-10-09T15:14:08;24.30;34.50
9125;DHT22;4597;48.730;9.114;2023-10-09T15:16:33;24.40;34.20
9125;DHT22;4597;48.730;9.114;2023-10-09T15:18:59;24.40;34.20
9125;DHT22;4597;48.730;9.114;2023-10-09T15:21:28;24.40;34.40
9125;DHT22;4597;48.730;9.114;2023-10-09T15:23:57;24.40;35.20
9125;DHT22;4597;48.730;9.114;2023-10-09T15:26:23;24.40;36.50
9125;DHT22;4597;48.730;9.114;2023-10-09T15:28:53;24.20;37.00
9125;DHT22;4597;48.730;9.114;2023-10-09T15:31:18;24.20;36.80
9125;DHT22;4597;48.730;9.114;2023-10-09T15:33:46;24.10;35.60
9125;DHT22;4597;48.730;9.114;2023-10-09T15:36:16;24.00;36.80
9125;DHT22;4597;48.730;9.114;2023-10-09T15:38:54;23.80;38.50
9125;DHT22;4597;48.730;9.114;2023-10-09T15:41:19;23.80;38.40
9125;DHT22;4597;48.730;9.114;2023-10-09T15:43:46;23.70;38.10
9125;DHT22;4597;48.730;9.114;2023-10-09T15:46:13;23.60;38.60
9125;DHT22;4597;48.730;9.114;2023-10-09T15:48:42;23.50;38.70
9125;DHT22;4597;48.730;9.114;2023-10-09T15:51:12;23.60;38.70
9125;DHT22;4597;48.730;9.114;2023-10-09T15:53:40;23.50;38.90
9125;DHT22;4597;48.730;9.114;2023-10-09T15:56:06;23.50;39.20
9125;DHT22;4597;48.730;9.114;2023-10-09T15:58:32;23.40;39.10
9125;DHT22;4597;48.730;9.114;2023-10-09T16:00:58;23.40;39.70
9125;DHT22;4597;48.730;9.114;2023-10-09T16:03:25;23.40;40.10
9125;DHT22;4597;48.730;9.114;2023-10-09T16:05:52;23.40;40.70
9125;DHT22;4597;48.730;9.114;2023-10-09T16:10:48;23.10;41.90
9125;DHT22;4597;48.730;9.114;2023-10-09T16:13:13;23.00;42.50
9125;DHT22;4597;48.730;9.114;2023-10-09T16:15:43;23.00;42.00
9125;DHT22;4597;48.730;9.114;2023-10-09T16:18:09;22.90;42.80
9125;DHT22;4597;48.730;9.114;2023-10-09T16:20:34;22.90;44.30
9125;DHT22;4597;48.730;9.114;2023-10-09T16:23:02;22.70;44.20
9125;DHT22;4597;48.730;9.114;2023-10-09T16:25:32;22.60;44.00
9125;DHT22;4597;48.730;9.114;2023-10-09T16:28:04;22.60;43.70
9125;DHT22;4597;48.730;9.114;2023-10-09T16:30:29;22.60;44.00
9125;DHT22;4597;48.730;9.114;2023-10-09T16:32:55;22.50;44.30
9125;DHT22;4597;48.730;9.114;2023-10-09T16:35:21;22.50;43.70
9125;DHT22;4597;48.730;9.114;2023-10-09T16:37:48;22.40;43.90
9125;DHT22;4597;48.730;9.114;2023-10-09T16:40:15;22.40;44.90
9125;DHT22;4597;48.730;9.114;2023-10-09T16:42:41;22.30;46.20
9125;DHT22;4597;48.730;9.114;2023-10-09T16:45:11;22.20;45.80
9125;DHT22;4597;48.730;9.114;2023-10-09T16:47:49;22.10;46.00
9125;DHT22;4597;48.730;9.114;2023-10-09T16:50:16;22.10;46.70
9125;DHT22;4597;48.730;9.114;2023-10-09T16:52:45;22.00;47.20
9125;DHT22;4597;48.730;9.114;2023-10-09T16:55:11;21.90;47.40
9125;DHT22;4597;48.730;9.114;2023-10-09T16:57:38;21.90;47.40
9125;DHT22;4597;48.730;9.114;2023-10-09T17:00:08;21.80;48.20